Time;durP1;ratioP1;P1;durP2;ratioP2;P2;SDS_P1;SDS_P2;PMS_P1;PMS_P2;Temp;Humidity;BMP_temperature;BMP_pressure;BME280_temperature;BME280_humidity;BME280_pressure;Samples;Min_cycle;Max_cycle;Signal;HPM_P1;HPM_P2
2023/12/04 00:02:14;;;;;;;31.45;9.85;;;0.90;99.90;;;;;;5088514;28;20171;-82
2023/12/04 00:04:39;;;;;;;32.80;10.90;;;0.90;99.90;;;;;;5089662;28;20282;-82
2023/12/04 00:07:05;;;;;;;32.07;10.30;;;0.90;99.90;;;;;;5091452;28;20197;-81
2023/12/04 00:09:31;;;;;;;29.00;10.13;;;0.90;99.90;;;;;;5091267;28;20170;-82
2023/12/04 00:11:57;;;;;;;28.67;9.93;;;0.90;99.90;;;;;;5073828;28;20240;-82
2023/12/04 00:14:22;;;;;;;30.73;10.60;;;0.90;99.90;;;;;;5073267;28;20470;-82
2023/12/04 00:16:48;;;;;;;31.90;11.23;;;0.90;99.90;;;;;;5072499;28;20243;-81
2023/12/04 00:19:14;;;;;;;30.90;10.17;;;0.80;99.90;;;;;;5072205;28;20224;-82
2023/12/04 00:21:39;;;;;;;27.77;9.70;;;0.80;99.90;;;;;;5072733;28;20171;-81
2023/12/04 00:24:05;;;;;;;27.77;8.50;;;0.90;99.90;;;;;;5090827;28;20186;-81
2023/12/04 00:26:31;;;;;;;27.60;8.97;;;0.80;99.90;;;;;;5091061;28;20190;-81
2023/12/04 00:28:56;;;;;;;29.33;9.50;;;0.80;99.90;;;;;;5090046;28;20179;-82
2023/12/04 00:31:22;;;;;;;27.87;9.83;;;0.80;99.90;;;;;;5091017;28;20194;-81
2023/12/04 00:33:48;;;;;;;25.70;8.53;;;0.80;99.90;;;;;;5073291;28;20192;-81
2023/12/04 00:36:14;;;;;;;34.33;8.77;;;0.80;99.90;;;;;;5090489;28;20175;-81
2023/12/04 00:38:39;;;;;;;26.20;8.60;;;0.80;99.90;;;;;;5090181;28;20516;-81
2023/12/04 00:41:05;;;;;;;30.23;10.50;;;0.80;99.90;;;;;;5090054;28;20176;-81
2023/12/04 00:43:31;;;;;;;29.27;9.60;;;0.80;99.90;;;;;;5072077;28;20515;-81
2023/12/04 00:45:57;;;;;;;29.37;9.50;;;0.80;99.90;;;;;;5072055;28;20436;-81
2023/12/04 00:48:22;;;;;;;29.50;9.10;;;0.80;99.90;;;;;;5088752;28;20196;-81
2023/12/04 00:50:48;;;;;;;27.03;9.33;;;0.80;99.90;;;;;;5090435;28;20535;-81
2023/12/04 00:53:14;;;;;;;27.47;9.40;;;0.80;99.90;;;;;;5089783;28;20165;-81
2023/12/04 00:55:39;;;;;;;29.10;10.27;;;0.80;99.90;;;;;;5089028;28;20171;-81
2023/12/04 00:58:05;;;;;;;24.17;8.10;;;0.80;99.90;;;;;;5089473;28;20198;-81
2023/12/04 01:00:33;;;;;;;26.83;8.67;;;0.70;99.90;;;;;;5071921;28;20216;-81
2023/12/04 01:02:59;;;;;;;28.15;9.43;;;0.70;99.90;;;;;;5089542;28;20188;-81
2023/12/04 01:05:25;;;;;;;26.50;8.90;;;0.70;99.90;;;;;;5159983;22;20224;-81
2023/12/04 01:07:51;;;;;;;29.00;10.10;;;0.70;99.90;;;;;;5070340;28;20188;-82
2023/12/04 01:10:20;;;;;;;29.13;8.68;;;0.70;99.90;;;;;;5052265;28;20177;-81
2023/12/04 01:12:45;;;;;;;28.52;8.32;;;0.80;99.90;;;;;;5069434;28;20192;-81
2023/12/04 01:15:11;;;;;;;25.60;9.60;;;0.70;99.90;;;;;;5052544;28;20202;-81
2023/12/04 01:17:37;;;;;;;28.60;8.70;;;0.70;99.90;;;;;;5051723;28;20184;-81
2023/12/04 01:20:04;;;;;;;28.10;9.50;;;0.70;99.90;;;;;;5069155;28;20443;-81
2023/12/04 01:22:30;;;;;;;28.73;9.73;;;0.70;99.90;;;;;;5069809;28;20407;-81
2023/12/04 01:24:58;;;;;;;27.93;9.13;;;0.70;99.90;;;;;;5051147;28;20242;-81
2023/12/04 01:27:24;;;;;;;32.47;9.10;;;0.70;99.90;;;;;;5069262;28;20164;-81
2023/12/04 01:29:50;;;;;;;30.53;9.57;;;0.70;99.90;;;;;;5068740;28;20168;-81
2023/12/04 01:32:15;;;;;;;31.27;10.10;;;0.70;99.90;;;;;;5067880;28;20167;-81
2023/12/04 01:34:41;;;;;;;30.80;9.83;;;0.70;99.90;;;;;;5069146;28;20266;-81
2023/12/04 01:37:07;;;;;;;28.83;9.93;;;0.70;99.90;;;;;;5050564;28;20656;-81
2023/12/04 01:39:32;;;;;;;28.93;9.93;;;0.70;99.90;;;;;;5050550;28;20260;-81
2023/12/04 01:41:58;;;;;;;30.73;8.57;;;0.80;99.90;;;;;;5051111;28;20168;-81
2023/12/04 01:44:24;;;;;;;26.87;8.90;;;0.70;99.90;;;;;;5068755;28;20179;-81
2023/12/04 01:46:50;;;;;;;28.20;9.85;;;0.80;99.90;;;;;;5051487;28;20307;-81
2023/12/04 01:49:16;;;;;;;30.97;10.60;;;0.80;99.90;;;;;;5068444;28;20201;-81
2023/12/04 01:51:43;;;;;;;29.40;10.23;;;0.80;99.90;;;;;;5068652;28;20406;-81
2023/12/04 01:54:08;;;;;;;28.25;10.13;;;0.80;99.90;;;;;;5068651;28;20211;-81
2023/12/04 01:56:36;;;;;;;30.97;9.60;;;0.80;99.90;;;;;;5068644;28;20185;-82
2023/12/04 01:59:02;;;;;;;29.67;9.75;;;0.70;99.90;;;;;;5049798;28;20450;-81
2023/12/04 02:01:28;;;;;;;28.97;9.43;;;0.80;99.90;;;;;;5051047;28;20199;-81
2023/12/04 02:03:56;;;;;;;30.55;9.43;;;0.80;99.90;;;;;;5068743;28;20180;-81
2023/12/04 02:06:21;;;;;;;28.42;9.30;;;0.80;99.90;;;;;;5051354;28;20260;-81
2023/12/04 02:08:48;;;;;;;30.70;9.80;;;0.80;99.90;;;;;;5068298;28;20172;-81
2023/12/04 02:11:13;;;;;;;29.40;9.32;;;0.80;99.90;;;;;;5068450;28;20421;-81
2023/12/04 02:13:40;;;;;;;26.70;8.90;;;0.80;99.90;;;;;;5050889;28;20192;-82
2023/12/04 02:16:35;;;;;;;26.95;8.80;;;0.80;99.90;;;;;;5068992;28;20162;-81
2023/12/04 02:19:01;;;;;;;28.00;9.50;;;0.70;99.90;;;;;;5066306;28;20576;-81
2023/12/04 02:21:27;;;;;;;28.27;10.30;;;0.80;99.90;;;;;;5068323;28;20164;-81
2023/12/04 02:23:53;;;;;;;29.30;9.40;;;0.80;99.90;;;;;;5068085;28;20510;-81
2023/12/04 02:26:24;;;;;;;29.08;9.80;;;0.80;99.90;;;;;;5068051;28;20164;-81
2023/12/04 02:28:59;;;;;;;29.40;10.10;;;0.80;99.90;;;;;;5049871;28;20198;-81
2023/12/04 02:31:26;;;;;;;26.50;8.45;;;0.70;99.90;;;;;;5050565;28;20165;-81
2023/12/04 02:33:57;;;;;;;29.88;9.32;;;0.80;99.90;;;;;;5067868;28;20192;-81
2023/12/04 02:36:25;;;;;;;26.73;8.93;;;0.80;99.90;;;;;;5068577;28;20161;-81
2023/12/04 02:38:52;;;;;;;28.02;8.48;;;0.70;99.90;;;;;;5050479;28;20223;-81
2023/12/04 02:41:18;;;;;;;28.92;9.70;;;0.80;99.90;;;;;;5067753;28;20168;-81
2023/12/04 02:43:43;;;;;;;25.47;8.93;;;0.80;99.90;;;;;;5050475;28;20223;-81
2023/12/04 02:46:09;;;;;;;29.43;9.10;;;0.80;99.90;;;;;;5068108;28;20406;-81
2023/12/04 02:48:35;;;;;;;25.60;7.40;;;0.80;99.90;;;;;;5068497;28;20184;-82
2023/12/04 02:51:02;;;;;;;27.13;8.60;;;0.80;99.90;;;;;;5069024;28;20428;-81
2023/12/04 02:53:27;;;;;;;27.45;9.43;;;0.80;99.90;;;;;;5067845;28;20251;-81
2023/12/04 02:55:53;;;;;;;27.93;9.77;;;0.80;99.90;;;;;;5067599;28;20171;-81
2023/12/04 02:58:19;;;;;;;29.27;8.60;;;0.80;99.90;;;;;;5049892;28;20183;-81
2023/12/04 03:00:44;;;;;;;28.90;9.60;;;0.80;99.90;;;;;;5067372;28;20611;-81
2023/12/04 03:03:10;;;;;;;26.70;8.47;;;0.80;99.90;;;;;;5066579;28;20227;-81
2023/12/04 03:05:36;;;;;;;26.00;7.87;;;0.80;99.90;;;;;;5067142;28;20426;-81
2023/12/04 03:08:02;;;;;;;26.83;8.63;;;0.80;99.90;;;;;;5067691;28;20167;-81
2023/12/04 03:10:27;;;;;;;26.55;8.93;;;0.80;99.90;;;;;;5067524;28;20177;-81
2023/12/04 03:12:53;;;;;;;29.80;9.57;;;0.80;99.90;;;;;;5067053;28;20161;-81
2023/12/04 03:15:19;;;;;;;24.93;8.30;;;0.80;99.90;;;;;;5049875;28;20483;-81
2023/12/04 03:17:45;;;;;;;27.30;8.77;;;0.80;99.90;;;;;;5067094;28;20196;-81
2023/12/04 03:20:10;;;;;;;29.40;10.03;;;0.70;99.90;;;;;;5066172;28;20275;-81
2023/12/04 03:22:37;;;;;;;30.97;9.43;;;0.70;99.90;;;;;;5067184;28;20189;-81
2023/12/04 03:25:06;;;;;;;28.30;9.10;;;0.70;99.90;;;;;;5067388;28;20426;-81
2023/12/04 03:27:31;;;;;;;27.63;10.85;;;0.70;99.90;;;;;;5067457;28;20660;-81
2023/12/04 03:29:57;;;;;;;29.00;9.90;;;0.70;99.90;;;;;;5066595;28;20190;-81
2023/12/04 03:32:23;;;;;;;31.87;10.87;;;0.70;99.90;;;;;;5049952;28;20180;-81
2023/12/04 03:34:48;;;;;;;27.33;9.63;;;0.70;99.90;;;;;;5066548;28;20200;-81
2023/12/04 03:37:14;;;;;;;32.80;10.67;;;0.70;99.90;;;;;;5070682;28;20215;-81
2023/12/04 03:39:40;;;;;;;26.63;8.87;;;0.70;99.90;;;;;;5071050;28;20203;-81
2023/12/04 03:42:05;;;;;;;26.87;9.30;;;0.70;99.90;;;;;;5071131;28;20181;-81
2023/12/04 03:44:33;;;;;;;26.70;9.53;;;0.70;99.90;;;;;;5071119;28;20184;-81
2023/12/04 03:46:59;;;;;;;26.27;8.07;;;0.70;99.90;;;;;;5071620;28;20164;-81
2023/12/04 03:49:25;;;;;;;29.43;9.37;;;0.70;99.90;;;;;;5071914;28;20168;-81
2023/12/04 03:51:50;;;;;;;29.00;9.60;;;0.70;99.90;;;;;;5233548;22;20695;-81
2023/12/04 03:54:16;;;;;;;26.80;8.70;;;0.70;99.90;;;;;;5013628;28;20204;-81
2023/12/04 03:56:41;;;;;;;28.67;9.17;;;0.70;99.90;;;;;;5014608;28;20167;-81
2023/12/04 03:59:09;;;;;;;31.33;10.40;;;0.70;99.90;;;;;;5013738;28;20201;-81
2023/12/04 04:01:35;;;;;;;27.92;10.25;;;0.70;99.90;;;;;;5031337;28;20177;-81
2023/12/04 04:04:00;;;;;;;27.80;8.57;;;0.70;99.90;;;;;;5031856;28;20257;-81
2023/12/04 04:06:26;;;;;;;27.27;8.73;;;0.70;99.90;;;;;;5013008;28;20171;-81
2023/12/04 04:08:52;;;;;;;27.77;9.40;;;0.60;99.90;;;;;;5030540;28;20173;-81
2023/12/04 04:11:20;;;;;;;32.13;10.00;;;0.70;99.90;;;;;;5234121;22;20276;-81
2023/12/04 04:13:46;;;;;;;29.92;10.27;;;0.70;99.90;;;;;;5090098;28;20511;-81
2023/12/04 04:16:15;;;;;;;28.30;8.50;;;0.70;99.90;;;;;;5090487;28;20528;-81
2023/12/04 04:18:42;;;;;;;27.20;10.10;;;0.70;99.90;;;;;;5090450;28;20240;-81
2023/12/04 04:21:08;;;;;;;25.70;9.10;;;0.60;99.90;;;;;;5072718;28;20236;-81
2023/12/04 04:23:34;;;;;;;28.50;9.67;;;0.60;99.90;;;;;;5090456;28;20181;-81
2023/12/04 04:26:00;;;;;;;30.73;8.70;;;0.70;99.90;;;;;;5089874;28;20745;-81
2023/12/04 04:28:25;;;;;;;27.50;8.97;;;0.60;99.90;;;;;;5089045;28;20355;-81
2023/12/04 04:30:51;;;;;;;31.93;10.33;;;0.60;99.90;;;;;;5089514;28;20186;-81
2023/12/04 04:33:17;;;;;;;31.00;9.90;;;0.70;99.90;;;;;;5072280;28;20520;-81
2023/12/04 04:35:43;;;;;;;27.88;10.50;;;0.60;99.90;;;;;;5072009;28;20162;-81
2023/12/04 04:38:09;;;;;;;32.27;10.27;;;0.60;99.90;;;;;;5090694;28;20160;-81
2023/12/04 04:40:35;;;;;;;25.63;8.80;;;0.60;99.90;;;;;;5072365;28;20413;-81
2023/12/04 04:43:00;;;;;;;34.47;11.60;;;0.60;99.90;;;;;;5090146;28;20193;-81
2023/12/04 04:45:26;;;;;;;28.40;9.10;;;0.60;99.90;;;;;;5090602;28;20194;-81
2023/12/04 04:47:52;;;;;;;25.93;8.83;;;0.60;99.90;;;;;;5089036;28;20174;-81
2023/12/04 04:50:17;;;;;;;27.10;10.20;;;0.60;99.90;;;;;;5090715;28;20172;-81
2023/12/04 04:52:43;;;;;;;30.30;10.77;;;0.60;99.90;;;;;;5090334;28;20197;-81
2023/12/04 04:55:09;;;;;;;27.83;10.77;;;0.60;99.90;;;;;;5090488;28;20245;-81
2023/12/04 04:57:34;;;;;;;31.20;10.07;;;0.50;99.90;;;;;;5072316;28;20180;-81
2023/12/04 05:00:00;;;;;;;28.43;9.93;;;0.50;99.90;;;;;;5089684;28;20253;-81
2023/12/04 05:02:26;;;;;;;30.17;9.40;;;0.50;99.90;;;;;;5090297;28;20182;-81
2023/12/04 05:04:51;;;;;;;32.63;9.77;;;0.50;99.90;;;;;;5090580;28;20187;-81
2023/12/04 05:07:17;;;;;;;25.17;8.63;;;0.50;99.90;;;;;;5091436;28;20188;-81
2023/12/04 05:09:42;;;;;;;28.73;9.93;;;0.60;99.90;;;;;;5071691;28;20168;-81
2023/12/04 05:12:08;;;;;;;29.67;8.97;;;0.50;99.90;;;;;;5089274;28;20183;-81
2023/12/04 05:14:34;;;;;;;30.00;10.30;;;0.50;99.90;;;;;;5089771;28;20291;-81
2023/12/04 05:17:00;;;;;;;28.67;9.87;;;0.50;99.90;;;;;;5089940;28;20171;-81
2023/12/04 05:19:25;;;;;;;33.40;9.83;;;0.60;99.90;;;;;;5089813;28;20189;-81
2023/12/04 05:21:51;;;;;;;30.40;10.23;;;0.50;99.90;;;;;;5089629;28;20429;-80
2023/12/04 05:24:16;;;;;;;28.33;9.90;;;0.60;99.90;;;;;;5089156;28;20533;-81
2023/12/04 05:26:43;;;;;;;28.53;9.60;;;0.50;99.90;;;;;;5089561;28;20167;-81
2023/12/04 05:29:09;;;;;;;30.25;10.18;;;0.50;99.90;;;;;;5089437;28;20171;-80
2023/12/04 05:31:34;;;;;;;28.43;10.63;;;0.60;99.90;;;;;;5089756;28;20177;-81
2023/12/04 05:34:00;;;;;;;29.50;9.93;;;0.60;99.90;;;;;;5070887;28;20194;-81
2023/12/04 05:36:26;;;;;;;30.10;8.87;;;0.60;99.90;;;;;;5089396;28;20178;-81
2023/12/04 05:38:53;;;;;;;33.92;11.70;;;0.60;99.90;;;;;;5089932;28;20632;-81
2023/12/04 05:41:19;;;;;;;29.20;9.48;;;0.60;99.90;;;;;;5089844;28;20163;-81
2023/12/04 05:43:45;;;;;;;28.97;10.90;;;0.60;99.90;;;;;;5088935;28;20208;-81
2023/12/04 05:46:10;;;;;;;30.83;10.43;;;0.70;99.90;;;;;;5089304;28;20454;-81
2023/12/04 05:48:36;;;;;;;30.73;9.73;;;0.70;99.90;;;;;;5071475;28;20663;-81
2023/12/04 05:51:05;;;;;;;29.53;10.37;;;0.60;99.90;;;;;;5090404;28;20171;-81
2023/12/04 05:53:31;;;;;;;29.65;10.68;;;0.60;99.90;;;;;;5072568;28;20197;-81
2023/12/04 05:55:56;;;;;;;35.60;12.07;;;0.60;99.90;;;;;;5089421;28;20250;-81
2023/12/04 05:58:22;;;;;;;27.33;9.47;;;0.60;99.90;;;;;;5087655;28;20168;-81
2023/12/04 06:00:48;;;;;;;31.53;10.93;;;0.60;99.90;;;;;;5088458;28;20167;-81
2023/12/04 06:03:13;;;;;;;28.80;10.73;;;0.60;99.90;;;;;;5088687;28;20167;-81
2023/12/04 06:05:39;;;;;;;28.77;10.40;;;0.60;99.90;;;;;;5088045;28;20171;-80
2023/12/04 06:08:05;;;;;;;34.60;12.47;;;0.60;99.90;;;;;;5070988;28;20190;-81
2023/12/04 06:10:30;;;;;;;30.50;10.50;;;0.60;99.90;;;;;;5085905;28;20200;-81
2023/12/04 06:12:56;;;;;;;30.17;10.60;;;0.60;99.90;;;;;;5086558;28;20160;-81
2023/12/04 06:15:21;;;;;;;33.30;11.30;;;0.70;99.90;;;;;;5068120;28;20194;-81
2023/12/04 06:17:47;;;;;;;30.03;10.93;;;0.70;99.90;;;;;;5086141;28;20184;-81
2023/12/04 06:20:13;;;;;;;31.40;10.73;;;0.70;99.90;;;;;;5086808;28;20186;-81
2023/12/04 06:22:39;;;;;;;31.77;12.30;;;0.70;99.90;;;;;;5086431;28;20246;-81
2023/12/04 06:25:05;;;;;;;28.30;10.63;;;0.70;99.90;;;;;;5086718;28;20188;-81
2023/12/04 06:27:31;;;;;;;28.98;10.55;;;0.70;99.90;;;;;;5070440;28;20406;-81
2023/12/04 06:29:58;;;;;;;32.07;10.60;;;0.70;99.90;;;;;;5087809;28;20178;-81
2023/12/04 06:32:24;;;;;;;31.65;11.60;;;0.70;99.90;;;;;;5067889;28;20414;-80
2023/12/04 06:34:50;;;;;;;32.37;11.57;;;0.60;99.90;;;;;;5085112;28;20191;-81
2023/12/04 06:37:16;;;;;;;30.75;10.73;;;0.60;99.90;;;;;;5085771;28;20449;-81
2023/12/04 06:39:44;;;;;;;30.60;11.17;;;0.60;99.90;;;;;;5067933;28;20194;-81
2023/12/04 06:42:14;;;;;;;30.05;9.68;;;0.60;99.90;;;;;;5067470;28;20417;-80
2023/12/04 06:44:40;;;;;;;31.33;11.13;;;0.50;99.90;;;;;;5085571;28;20188;-80
2023/12/04 06:47:08;;;;;;;33.20;12.20;;;0.50;99.90;;;;;;5064178;28;20181;-80
2023/12/04 06:49:34;;;;;;;28.50;10.52;;;0.50;99.90;;;;;;5083894;28;20762;-80
2023/12/04 06:52:00;;;;;;;29.45;10.35;;;0.50;99.90;;;;;;5083581;28;20174;-81
2023/12/04 06:54:26;;;;;;;29.42;10.85;;;0.60;99.90;;;;;;5083532;28;20286;-80
2023/12/04 06:56:52;;;;;;;32.33;11.65;;;0.60;99.90;;;;;;5084130;28;20163;-80
2023/12/04 06:59:18;;;;;;;29.60;10.50;;;0.60;99.90;;;;;;5083720;28;20207;-81
2023/12/04 07:01:44;;;;;;;29.25;9.90;;;0.60;99.90;;;;;;5083525;28;20166;-80
2023/12/04 07:04:10;;;;;;;33.33;11.70;;;0.60;99.90;;;;;;5065538;28;20189;-80
2023/12/04 07:06:37;;;;;;;28.60;10.50;;;0.60;99.90;;;;;;5084500;28;20401;-81
2023/12/04 07:09:03;;;;;;;32.17;11.20;;;0.60;99.90;;;;;;5065306;28;20421;-81
2023/12/04 07:11:29;;;;;;;34.55;11.40;;;0.70;99.90;;;;;;5082664;28;20195;-80
2023/12/04 07:13:55;;;;;;;28.25;10.82;;;0.70;99.90;;;;;;5082745;28;20190;-80
2023/12/04 07:16:20;;;;;;;28.40;10.40;;;0.70;99.90;;;;;;5081695;28;20211;-80
2023/12/04 07:18:46;;;;;;;28.37;10.20;;;0.70;99.90;;;;;;5064705;28;20187;-80
2023/12/04 07:21:12;;;;;;;28.33;11.40;;;0.70;99.90;;;;;;5083838;28;20620;-80
2023/12/04 07:23:38;;;;;;;29.40;10.70;;;0.60;99.90;;;;;;5065810;28;20183;-80
2023/12/04 07:26:04;;;;;;;28.57;9.93;;;0.60;99.90;;;;;;5081825;28;20202;-80
2023/12/04 07:28:30;;;;;;;30.48;11.63;;;0.60;99.90;;;;;;5082562;28;20173;-81
2023/12/04 07:30:59;;;;;;;30.60;10.10;;;0.70;99.90;;;;;;5081690;28;20223;-81
2023/12/04 07:33:28;;;;;;;28.10;10.20;;;0.60;99.90;;;;;;5081420;28;20191;-80
2023/12/04 07:35:54;;;;;;;34.50;11.82;;;0.60;99.90;;;;;;5081309;28;20753;-80
2023/12/04 07:38:20;;;;;;;31.43;10.67;;;0.60;99.90;;;;;;5080021;28;20199;-80
2023/12/04 07:40:46;;;;;;;27.87;10.67;;;0.60;99.90;;;;;;5080624;28;20413;-80
2023/12/04 07:43:14;;;;;;;31.10;10.63;;;0.50;99.90;;;;;;5080284;28;20411;-80
2023/12/04 07:45:39;;;;;;;31.13;10.13;;;0.50;99.90;;;;;;5062041;28;20584;-80
2023/12/04 07:48:06;;;;;;;34.57;12.97;;;0.50;99.90;;;;;;5081177;28;20202;-80
2023/12/04 07:50:31;;;;;;;30.27;10.60;;;0.50;99.90;;;;;;5081061;28;20893;-81
2023/12/04 07:52:57;;;;;;;32.33;11.07;;;0.50;99.90;;;;;;5081864;28;20230;-80
2023/12/04 07:55:23;;;;;;;31.83;11.67;;;0.40;99.90;;;;;;5081065;28;20644;-80
2023/12/04 07:57:50;;;;;;;33.20;11.17;;;0.40;99.90;;;;;;5079210;28;20647;-81
2023/12/04 08:00:17;;;;;;;31.42;12.07;;;0.40;99.90;;;;;;5081633;28;20187;-80
2023/12/04 08:02:45;;;;;;;31.85;12.15;;;0.50;99.90;;;;;;5081948;28;20155;-80
2023/12/04 08:05:12;;;;;;;27.60;9.60;;;0.40;99.90;;;;;;5081719;28;20182;-80
2023/12/04 08:07:38;;;;;;;31.48;12.18;;;0.50;99.90;;;;;;5063835;28;20632;-81
2023/12/04 08:10:04;;;;;;;30.70;12.00;;;0.50;99.90;;;;;;5227997;22;20306;-80
2023/12/04 08:12:30;;;;;;;35.90;12.82;;;0.50;99.90;;;;;;5114748;22;20314;-80
2023/12/04 08:14:55;;;;;;;34.60;11.80;;;0.50;99.90;;;;;;5059734;28;20708;-80
2023/12/04 08:17:21;;;;;;;30.97;11.40;;;0.50;99.90;;;;;;5043771;28;20180;-80
2023/12/04 08:19:47;;;;;;;32.80;12.10;;;0.50;99.90;;;;;;5061556;28;20192;-80
2023/12/04 08:22:12;;;;;;;28.87;10.17;;;0.50;99.90;;;;;;5043930;28;20195;-80
2023/12/04 08:24:38;;;;;;;30.90;11.60;;;0.60;99.90;;;;;;5046416;28;20195;-80
2023/12/04 08:27:04;;;;;;;27.47;9.60;;;0.60;99.90;;;;;;5065754;28;20172;-80
2023/12/04 08:29:29;;;;;;;28.80;10.10;;;0.60;99.90;;;;;;5065701;28;20181;-81
2023/12/04 08:31:55;;;;;;;29.50;10.97;;;0.60;99.90;;;;;;5047540;28;20446;-80
2023/12/04 08:34:21;;;;;;;28.43;10.70;;;0.60;99.90;;;;;;5048907;28;20295;-81
2023/12/04 08:36:46;;;;;;;30.27;10.87;;;0.70;99.90;;;;;;5065640;28;20530;-81
2023/12/04 08:39:12;;;;;;;28.37;10.67;;;0.70;99.90;;;;;;5066234;28;20232;-81
2023/12/04 08:41:45;;;;;;;32.85;11.02;;;0.70;99.90;;;;;;5064771;28;20655;-81
2023/12/04 08:44:11;;;;;;;28.38;10.25;;;0.70;99.90;;;;;;5047470;28;20223;-81
2023/12/04 08:46:37;;;;;;;27.80;10.00;;;0.70;99.90;;;;;;5047383;28;20167;-80
2023/12/04 08:49:02;;;;;;;31.80;12.17;;;0.70;99.90;;;;;;5064826;28;20176;-80
2023/12/04 08:51:28;;;;;;;30.73;10.60;;;0.70;99.90;;;;;;5046809;28;20221;-80
2023/12/04 08:53:57;;;;;;;27.87;10.03;;;0.70;99.90;;;;;;5064656;28;20187;-81
2023/12/04 08:56:23;;;;;;;26.27;9.65;;;0.70;99.90;;;;;;5064744;28;20169;-80
2023/12/04 08:58:50;;;;;;;29.67;10.02;;;0.70;99.90;;;;;;5047123;28;20196;-81
2023/12/04 09:01:21;;;;;;;28.50;11.13;;;0.70;99.90;;;;;;5063832;28;20240;-80
2023/12/04 09:03:47;;;;;;;28.75;10.10;;;0.70;99.90;;;;;;5044976;28;20337;-80
2023/12/04 09:06:12;;;;;;;28.80;9.17;;;0.70;99.90;;;;;;5060814;28;20197;-80
2023/12/04 09:08:40;;;;;;;47.70;11.10;;;0.70;99.90;;;;;;5046199;28;20163;-81
2023/12/04 09:11:05;;;;;;;26.87;8.90;;;0.70;99.90;;;;;;5063285;28;20649;-80
2023/12/04 09:13:32;;;;;;;31.20;11.17;;;0.80;99.90;;;;;;5046298;28;20202;-81
2023/12/04 09:15:58;;;;;;;30.48;10.55;;;0.70;99.90;;;;;;5045353;28;20499;-80
2023/12/04 09:18:23;;;;;;;30.10;10.10;;;0.70;99.90;;;;;;5062863;28;20647;-80
2023/12/04 09:20:49;;;;;;;30.00;10.83;;;0.70;99.90;;;;;;5045134;28;20581;-80
2023/12/04 09:23:15;;;;;;;31.57;10.90;;;0.80;99.40;;;;;;5064105;28;20243;-81
2023/12/04 09:25:40;;;;;;;31.87;10.87;;;0.80;96.00;;;;;;5046297;28;20191;-81
2023/12/04 09:28:07;;;;;;;31.43;10.30;;;0.90;82.30;;;;;;5062980;28;20172;-81
2023/12/04 09:30:34;;;;;;;28.10;10.02;;;0.80;65.20;;;;;;5045638;28;20176;-80
2023/12/04 09:32:59;;;;;;;30.00;10.70;;;0.90;34.90;;;;;;5062535;28;20233;-80
2023/12/04 09:35:25;;;;;;;32.00;11.47;;;0.80;3.20;;;;;;5063307;28;20198;-80
2023/12/04 09:37:51;;;;;;;26.97;9.20;;;0.80;1.00;;;;;;5063222;28;20250;-80
2023/12/04 09:40:16;;;;;;;27.37;10.13;;;0.90;1.00;;;;;;5062599;28;20668;-81
2023/12/04 09:42:42;;;;;;;26.27;10.03;;;0.90;1.00;;;;;;5062034;28;20156;-80
2023/12/04 09:45:12;;;;;;;27.53;9.40;;;0.90;1.00;;;;;;5062535;28;20214;-80
2023/12/04 09:47:37;;;;;;;27.55;9.80;;;1.00;1.00;;;;;;5065259;28;20440;-80
2023/12/04 09:50:05;;;;;;;31.53;10.50;;;0.90;1.00;;;;;;5064371;28;20152;-80
2023/12/04 09:52:33;;;;;;;26.17;9.50;;;0.90;1.00;;;;;;5064392;28;20171;-80
2023/12/04 09:54:59;;;;;;;28.08;10.75;;;1.00;1.00;;;;;;5045646;28;20290;-80
2023/12/04 09:57:26;;;;;;;26.50;9.70;;;1.00;1.00;;;;;;5045310;28;20668;-80
2023/12/04 09:59:52;;;;;;;28.77;9.20;;;1.00;1.00;;;;;;5063305;28;20585;-80
2023/12/04 10:02:19;;;;;;;28.08;9.55;;;1.10;1.00;;;;;;5063624;28;20165;-80
2023/12/04 10:04:46;;;;;;;27.00;9.25;;;1.10;1.00;;;;;;5063725;28;20188;-80
2023/12/04 10:07:12;;;;;;;27.92;10.25;;;1.10;1.00;;;;;;5046218;28;20250;-80
2023/12/04 10:09:40;;;;;;;27.20;9.15;;;1.20;1.00;;;;;;5045428;28;20171;-80
2023/12/04 10:12:06;;;;;;;30.95;8.40;;;1.20;1.00;;;;;;5063619;28;20209;-80
2023/12/04 10:14:32;;;;;;;28.65;9.38;;;1.20;1.00;;;;;;5063330;28;20185;-80
2023/12/04 10:16:58;;;;;;;29.87;9.07;;;1.20;1.00;;;;;;5064939;28;20194;-80
2023/12/04 10:19:32;;;;;;;29.13;8.90;;;1.30;1.00;;;;;;5047307;28;20566;-80
2023/12/04 10:21:59;;;;;;;27.10;9.40;;;1.30;1.00;;;;;;5064728;28;20149;-80
2023/12/04 10:24:35;;;;;;;26.98;8.90;;;1.40;1.00;;;;;;5047183;28;20196;-80
2023/12/04 10:27:04;;;;;;;26.95;9.20;;;1.40;1.00;;;;;;5065600;28;20153;-80
2023/12/04 10:29:47;;;;;;;24.70;8.27;;;1.40;1.00;;;;;;5047433;28;20176;-80
2023/12/04 10:32:13;;;;;;;29.02;9.77;;;1.40;1.00;;;;;;5065338;28;20195;-80
2023/12/04 10:34:42;;;;;;;27.25;9.07;;;1.50;1.00;;;;;;5064925;28;20569;-80
2023/12/04 10:37:09;;;;;;;27.52;8.68;;;1.50;1.00;;;;;;5064968;28;20177;-80
2023/12/04 10:39:51;;;;;;;26.50;8.35;;;1.50;1.00;;;;;;5065050;28;20179;-80
2023/12/04 10:42:27;;;;;;;24.52;8.10;;;1.50;1.00;;;;;;5064791;28;20157;-80
2023/12/04 10:44:56;;;;;;;26.20;8.23;;;1.60;1.00;;;;;;5048328;28;20282;-80
2023/12/04 10:47:22;;;;;;;27.42;8.57;;;1.50;1.00;;;;;;5066186;28;20161;-80
2023/12/04 10:49:50;;;;;;;27.05;8.57;;;1.60;1.00;;;;;;5066839;28;20192;-80
2023/12/04 10:52:19;;;;;;;25.42;7.38;;;1.60;1.00;;;;;;5067346;28;20165;-80
2023/12/04 10:54:48;;;;;;;28.15;8.55;;;1.60;1.00;;;;;;5067393;28;20188;-80
2023/12/04 10:57:24;;;;;;;23.88;8.00;;;1.60;1.00;;;;;;5067587;28;20722;-80
2023/12/04 10:59:53;;;;;;;29.75;7.90;;;1.70;1.00;;;;;;5067986;28;20207;-80
2023/12/04 11:02:26;;;;;;;32.92;9.30;;;1.70;1.00;;;;;;5067544;28;20192;-80
2023/12/04 11:04:57;;;;;;;30.58;9.07;;;1.70;1.00;;;;;;5068785;28;20210;-80
2023/12/04 11:07:27;;;;;;;27.42;8.32;;;1.70;1.00;;;;;;5067782;28;20152;-80
2023/12/04 11:09:53;;;;;;;29.90;9.50;;;1.60;1.00;;;;;;5067401;28;20183;-80
2023/12/04 11:12:25;;;;;;;32.38;8.48;;;1.60;1.00;;;;;;5049899;28;20707;-80
2023/12/04 11:14:59;;;;;;;29.13;8.88;;;1.70;1.00;;;;;;5050659;28;20180;-80
2023/12/04 11:17:26;;;;;;;28.52;8.13;;;1.60;1.00;;;;;;5068787;28;20220;-80
2023/12/04 11:20:16;;;;;;;26.33;9.13;;;1.70;1.00;;;;;;5068689;28;20259;-80
2023/12/04 11:22:45;;;;;;;29.65;8.90;;;1.60;1.40;;;;;;5068095;28;20156;-80
2023/12/04 11:25:12;;;;;;;27.40;10.15;;;1.60;18.20;;;;;;5067342;28;20191;-80
2023/12/04 11:27:39;;;;;;;25.67;8.90;;;1.50;35.40;;;;;;5067531;28;20211;-80
2023/12/04 11:30:06;;;;;;;27.25;8.90;;;1.40;63.60;;;;;;5067835;28;20167;-80
2023/12/04 11:32:43;;;;;;;29.63;10.05;;;1.40;92.50;;;;;;5067158;28;20172;-80
2023/12/04 11:35:14;;;;;;;31.17;9.20;;;1.30;99.80;;;;;;5049545;28;20188;-80
2023/12/04 11:37:40;;;;;;;26.65;8.30;;;1.30;99.90;;;;;;5067633;28;20148;-80
2023/12/04 11:40:07;;;;;;;28.38;8.63;;;1.20;99.90;;;;;;5067657;28;20200;-80
2023/12/04 11:42:33;;;;;;;29.20;8.75;;;1.20;99.90;;;;;;5050246;28;20169;-80
2023/12/04 11:44:59;;;;;;;28.98;10.57;;;1.10;99.90;;;;;;5066225;28;20198;-80
2023/12/04 11:47:25;;;;;;;28.83;10.60;;;1.10;99.90;;;;;;5065999;28;20164;-80
2023/12/04 11:49:50;;;;;;;30.57;10.03;;;1.10;99.90;;;;;;5048908;28;20175;-80
2023/12/04 11:52:16;;;;;;;28.57;9.83;;;1.10;99.90;;;;;;5047669;28;20171;-80
2023/12/04 11:55:05;;;;;;;28.90;9.60;;;1.10;99.90;;;;;;5064039;28;20192;-80
2023/12/04 11:57:38;;;;;;;28.65;9.82;;;1.10;99.90;;;;;;5066729;28;20185;-80
2023/12/04 12:00:18;;;;;;;29.30;9.52;;;1.10;99.90;;;;;;5069328;28;20180;-80
2023/12/04 12:02:53;;;;;;;27.80;9.48;;;1.20;99.90;;;;;;5050793;28;20158;-81
2023/12/04 12:05:20;;;;;;;30.92;10.75;;;1.20;99.90;;;;;;5051971;28;20196;-80
2023/12/04 12:07:46;;;;;;;26.10;9.50;;;1.20;99.90;;;;;;5053482;28;20204;-81
2023/12/04 12:10:13;;;;;;;30.35;9.13;;;1.20;99.90;;;;;;5050526;28;20169;-81
2023/12/04 12:12:40;;;;;;;33.63;9.77;;;1.20;99.90;;;;;;5052114;28;20195;-81
2023/12/04 12:15:12;;;;;;;29.98;9.85;;;1.30;99.90;;;;;;5069918;28;20187;-80
2023/12/04 12:17:39;;;;;;;27.00;7.55;;;1.30;99.90;;;;;;5070328;28;20156;-80
2023/12/04 12:20:09;;;;;;;27.42;7.78;;;1.30;99.90;;;;;;5071459;28;20188;-81
2023/12/04 12:22:36;;;;;;;26.83;8.45;;;1.40;99.90;;;;;;5069156;28;20164;-81
2023/12/04 12:25:04;;;;;;;29.25;9.55;;;1.40;99.90;;;;;;5043617;28;20196;-80
2023/12/04 12:27:31;;;;;;;25.33;8.07;;;1.40;99.90;;;;;;5060694;28;20157;-80
2023/12/04 12:30:00;;;;;;;27.85;8.95;;;1.40;99.90;;;;;;5060922;28;20178;-80
2023/12/04 12:32:27;;;;;;;26.05;8.38;;;1.40;99.90;;;;;;5043560;28;20179;-81
2023/12/04 12:34:56;;;;;;;32.65;8.75;;;1.50;99.90;;;;;;5041541;28;20196;-80
2023/12/04 12:37:22;;;;;;;27.30;8.60;;;1.50;99.90;;;;;;5042177;28;20172;-80
2023/12/04 12:39:47;;;;;;;30.13;8.73;;;1.50;99.90;;;;;;5040819;28;20703;-80
2023/12/04 12:42:26;;;;;;;27.67;7.93;;;1.50;99.90;;;;;;5058061;28;20419;-81